Chilhowee, MO (64733)

6:59 PM CDT on July 02, 2015 (GMT -0500)
Chilhowee MO US | | Change Station
CLOSE
Current Station
Personal Weather Station
Location: Chilhowee, MO
Elevation: 894 ft
Nearby Weather Stations
Active Advisory: Flood Warning Active Notice: Public Information Statement

Elev 894 ft 38.60 °N, 93.85 °W | Updated 36 seconds ago

Overcast
Overcast
71.4 °F
Feels Like 71.4 °F
N
0.0
Wind Variable Wind from East
Gusts 0.0 mph

Today
High -- | Low -- °F
--% Chance of Precip.
Yesterday
High -- | Low -- °F
Precip. -- in
5:55 AM 8:43 PM
Full, 99% visible
Pressure 29.90 in
Visibility 10.0 miles
Clouds Scattered Clouds 1600 ft
Scattered Clouds 2200 ft
Overcast 3000 ft
Dew Point 67 °F
Humidity 87%
Rainfall 0.00 in
Snow Depth Not available.
UV 1 out of 12
Pollen 2.80 out of 12
Air Quality Not available.
Flu Activity Not available.
METAR KRCM 022335Z AUTO 02004KT 10SM SCT016 SCT022 OVC030 22/19 A2990 RMK AO2 P0001

More Conditions Fewer Conditions

Pressure 29.90 in
Visibility 10.0 miles
Clouds Scattered Clouds 1600 ft
Scattered Clouds 2200 ft
Overcast 3000 ft
Dew Point 67 °F
Humidity 87%
Rainfall 0.00 in
Snow Depth Not available.
UV 1 out of 12
Pollen 2.80 out of 12
Air Quality Not available.
Flu Activity Not available.
METAR KRCM 022335Z AUTO 02004KT 10SM SCT016 SCT022 OVC030 22/19 A2990 RMK AO2 P0001

More Conditions Fewer Conditions

10-Day Weather Forecast

×

Almanac

Astronomy

Jul. 02, 2015 Rise Set
Actual Time
Civil Twilight
Nautical Twilight
Astronomical Twilight
Moon
Length of Visible Light
Length of Day
Tomorrow will be .
, % of the Moon is Illuminated

Today's Extremes

State Highs State Lows

Community

WunderPhotos

Upload Photos

1,834,569 photos uploaded!

WunderBlogs® & News

Nearby

Air Quality

  Air Quality AQ Index Pollutant
Not available.

Snow Depth

Station Depth Elevation

Earthquake Activity

City Distance Mag. Time & Date
Minimum magnitude displayed is 2.5.

Coastal Water Temperatures

Place Temperature

Stations

Nearby Weather Stations

Station Location Temp. Windchill Dew Point Humidity Wind Precip. Elev Updated Type
                   
Flood Warning
Statement as of 4:32 PM CDT on July 02, 2015

The Flood Warning continues for
the Blackwater river at Valley City.
* Until late Friday night.
* At 4:00 PM Thursday the stage was 26.5 feet.
* Flood stage is 22.0 feet.
* Moderate flooding is occurring and moderate flooding is forecast.
* Forecast... the river will continue to fall to below flood stage by
Friday morning.
* At 25.0 feet... County Highway E near Valley City and Highway 23
near the Perry State Wildlife Area are under water.
* At 22.0 feet... Woodlands and farm fields along the river begin to
flood.

                       Latest
location fs stage day/time forecast

Blackwater River
Valley city 22 26.5 Thu 04 PM 26.1 this evening


lat... Lon 3894 9342 3882 9361 3882 9368 3891 9361 3899 9348